Time;durP1;ratioP1;P1;durP2;ratioP2;P2;SDS_P1;SDS_P2;PMS_P1;PMS_P2;Temp;Humidity;BMP_temperature;BMP_pressure;BME280_temperature;BME280_humidity;BME280_pressure;Samples;Min_cycle;Max_cycle;Signal;HPM_P1;HPM_P2
2022/12/01 00:01:26;;;;;;;28.38;13.73;;;;;;;;;;5012286;28;20053;-82
2022/12/01 00:03:54;;;;;;;38.55;15.70;;;;;;;;;;5032787;28;20253;-82
2022/12/01 00:06:23;;;;;;;34.85;16.00;;;;;;;;;;5033366;28;20080;-82
2022/12/01 00:11:41;;;;;;;39.53;13.70;;;;;;;;;;5019246;28;20046;-82
2022/12/01 00:14:10;;;;;;;36.50;15.63;;;;;;;;;;5017275;28;20054;-83
2022/12/01 00:16:39;;;;;;;40.28;16.15;;;;;;;;;;5017158;28;20415;-83
2022/12/01 00:19:08;;;;;;;35.30;16.30;;;;;;;;;;5017167;28;20054;-83
2022/12/01 00:21:43;;;;;;;41.47;17.60;;;;;;;;;;5031501;28;20053;-82
2022/12/01 00:24:15;;;;;;;39.15;16.58;;;;;;;;;;5017901;28;20057;-82
2022/12/01 00:26:41;;;;;;;34.28;15.07;;;;;;;;;;5017880;28;20112;-82
2022/12/01 00:29:25;;;;;;;40.22;17.27;;;;;;;;;;5017834;28;20052;-82
2022/12/01 00:31:52;;;;;;;21.50;10.55;;;;;;;;;;5012098;28;20046;-82
2022/12/01 00:34:24;;;;;;;36.05;16.98;;;;;;;;;;5011097;28;20108;-82
2022/12/01 00:37:01;;;;;;;37.75;14.30;;;;;;;;;;5017786;28;20042;-83
2022/12/01 00:39:44;;;;;;;37.00;17.27;;;;;;;;;;5016675;28;20510;-82
2022/12/01 00:42:21;;;;;;;32.95;16.23;;;;;;;;;;5026582;28;20038;-83
2022/12/01 00:44:49;;;;;;;38.50;16.10;;;;;;;;;;5009742;28;20058;-82
2022/12/01 00:47:38;;;;;;;41.22;18.23;;;;;;;;;;5033986;28;20042;-82
2022/12/01 00:50:09;;;;;;;33.90;15.98;;;;;;;;;;5033538;28;20046;-82
2022/12/01 00:52:42;;;;;;;39.90;18.15;;;;;;;;;;5034608;28;20044;-84
2022/12/01 00:55:11;;;;;;;37.67;16.42;;;;;;;;;;5010780;28;20511;-84
2022/12/01 00:57:41;;;;;;;32.33;14.20;;;;;;;;;;5034230;28;20038;-84
2022/12/01 01:00:20;;;;;;;40.42;20.17;;;;;;;;;;5017514;28;20520;-84
2022/12/01 01:02:53;;;;;;;43.33;17.88;;;;;;;;;;5014593;28;20645;-84
2022/12/01 01:05:41;;;;;;;35.85;16.77;;;;;;;;;;5031581;28;20777;-84
2022/12/01 01:08:17;;;;;;;43.75;20.35;;;;;;;;;;5008683;28;20054;-84
2022/12/01 01:11:07;;;;;;;33.60;17.38;;;;;;;;;;5015636;28;20116;-83
2022/12/01 01:16:38;;;;;;;24.55;11.65;;;;;;;;;;5011250;28;20504;-84
2022/12/01 01:19:10;;;;;;;35.85;15.45;;;;;;;;;;5024836;28;20200;-84
2022/12/01 01:21:45;;;;;;;40.70;16.95;;;;;;;;;;5010894;28;20045;-85
2022/12/01 01:24:16;;;;;;;42.55;18.95;;;;;;;;;;5010041;28;20077;-84
2022/12/01 01:26:42;;;;;;;37.50;15.73;;;;;;;;;;5011379;28;20140;-85
2022/12/01 01:29:11;;;;;;;39.42;15.10;;;;;;;;;;5027821;28;20104;-84
2022/12/01 01:31:46;;;;;;;37.15;18.00;;;;;;;;;;5008554;28;20049;-84
2022/12/01 01:34:22;;;;;;;30.08;11.50;;;;;;;;;;5011075;28;20528;-84
2022/12/01 01:36:54;;;;;;;38.20;16.83;;;;;;;;;;5010925;28;20046;-84
2022/12/01 01:39:23;;;;;;;;;;;;;;;;;;5012400;28;20836;-84
2022/12/01 01:41:54;;;;;;;40.92;17.80;;;;;;;;;;5019178;28;20276;-84
2022/12/01 01:44:39;;;;;;;41.72;16.35;;;;;;;;;;5028200;28;20046;-84
2022/12/01 01:47:05;;;;;;;21.55;9.52;;;;;;;;;;5013376;28;20049;-84
2022/12/01 01:49:39;;;;;;;39.80;18.52;;;;;;;;;;5014533;28;20037;-85
2022/12/01 01:52:09;;;;;;;40.13;16.67;;;;;;;;;;5014242;28;20037;-84
2022/12/01 01:54:42;;;;;;;40.30;15.50;;;;;;;;;;5030704;28;20495;-85
2022/12/01 01:57:13;;;;;;;45.20;18.10;;;;;;;;;;5013686;28;20062;-84
2022/12/01 01:59:46;;;;;;;48.63;18.42;;;;;;;;;;5013960;28;20037;-84
2022/12/01 02:02:20;;;;;;;32.83;15.50;;;;;;;;;;5028238;28;20038;-84
2022/12/01 02:07:34;;;;;;;26.60;12.32;;;;;;;;;;5028336;28;20047;-84
2022/12/01 02:10:01;;;;;;;35.13;14.63;;;;;;;;;;5027385;28;20049;-84
2022/12/01 02:12:57;;;;;;;34.03;15.88;;;;;;;;;;5028086;28;20061;-84
2022/12/01 02:15:38;;;;;;;38.92;15.93;;;;;;;;;;5026903;28;20091;-85
2022/12/01 02:18:24;;;;;;;33.03;12.75;;;;;;;;;;5025009;28;20053;-84
2022/12/01 02:21:06;;;;;;;36.88;18.33;;;;;;;;;;5009346;28;20468;-85
2022/12/01 02:23:44;;;;;;;35.78;16.00;;;;;;;;;;5010647;28;20599;-84
2022/12/01 02:26:13;;;;;;;38.15;13.73;;;;;;;;;;5016079;28;20046;-85
2022/12/01 02:29:03;;;;;;;33.75;12.88;;;;;;;;;;5026537;28;20046;-85
2022/12/01 02:31:31;;;;;;;27.95;11.85;;;;;;;;;;5027904;28;20034;-85
2022/12/01 02:34:30;;;;;;;33.22;13.38;;;;;;;;;;5024867;28;20038;-84
2022/12/01 02:37:21;;;;;;;38.35;16.00;;;;;;;;;;4967860;28;20145;-85
2022/12/01 02:39:53;;;;;;;35.22;15.68;;;;;;;;;;5027430;28;20049;-84
2022/12/01 02:45:11;;;;;;;34.13;15.15;;;;;;;;;;5010027;28;19954;-84
2022/12/01 02:47:39;;;;;;;38.33;17.27;;;;;;;;;;5024119;28;20045;-84
2022/12/01 02:50:07;;;;;;;41.08;17.73;;;;;;;;;;5025894;28;20085;-84
2022/12/01 02:52:36;;;;;;;38.22;16.50;;;;;;;;;;5010121;28;20500;-84
2022/12/01 02:55:04;;;;;;;35.67;15.35;;;;;;;;;;5007199;28;20042;-84
2022/12/01 02:57:33;;;;;;;20.27;10.45;;;;;;;;;;5024190;28;20567;-84
2022/12/01 03:00:07;;;;;;;35.55;16.33;;;;;;;;;;5004388;28;21204;-83
2022/12/01 03:02:50;;;;;;;32.05;12.63;;;;;;;;;;5008494;28;20628;-84
2022/12/01 03:05:45;;;;;;;41.35;18.45;;;;;;;;;;5023075;28;20501;-84
2022/12/01 03:08:32;;;;;;;32.97;14.45;;;;;;;;;;5008723;28;20540;-85
2022/12/01 03:11:01;;;;;;;43.55;17.50;;;;;;;;;;5007707;28;20072;-84
2022/12/01 03:13:47;;;;;;;20.70;9.52;;;;;;;;;;5004920;28;20077;-85
2022/12/01 03:16:27;;;;;;;46.55;16.92;;;;;;;;;;5015220;28;20842;-85
2022/12/01 03:19:08;;;;;;;21.98;9.45;;;;;;;;;;5009076;28;20061;-83
2022/12/01 03:22:07;;;;;;;43.58;17.55;;;;;;;;;;5023812;28;20098;-84
2022/12/01 03:24:44;;;;;;;39.00;17.73;;;;;;;;;;5006264;28;20151;-84
2022/12/01 03:27:12;;;;;;;32.50;14.80;;;;;;;;;;5013172;28;20097;-84
2022/12/01 03:29:49;;;;;;;33.90;14.88;;;;;;;;;;5012192;28;20054;-84
2022/12/01 03:32:45;;;;;;;38.80;15.93;;;;;;;;;;5010726;28;20073;-84
2022/12/01 03:35:15;;;;;;;47.00;19.13;;;;;;;;;;5012470;28;20046;-82
2022/12/01 03:37:47;;;;;;;31.10;14.43;;;;;;;;;;5019657;28;20077;-84
2022/12/01 03:40:20;;;;;;;30.58;15.07;;;;;;;;;;5013319;28;20049;-84
2022/12/01 03:43:09;;;;;;;42.15;17.83;;;;;;;;;;5011024;28;20057;-84
2022/12/01 03:45:46;;;;;;;38.28;20.33;;;;;;;;;;5015354;28;20049;-84
2022/12/01 03:48:18;;;;;;;42.40;19.10;;;;;;;;;;5027983;28;20038;-84
2022/12/01 03:51:05;;;;;;;37.40;16.30;;;;;;;;;;5010023;28;20045;-84
2022/12/01 03:53:51;;;;;;;38.78;15.57;;;;;;;;;;5030996;28;20082;-84
2022/12/01 03:56:22;;;;;;;38.92;17.88;;;;;;;;;;5011476;28;20042;-83
2022/12/01 03:58:56;;;;;;;34.47;14.73;;;;;;;;;;5012749;28;20361;-84
2022/12/01 04:01:36;;;;;;;;;;;;;;;;;;;;;
2022/12/01 04:04:14;;;;;;;31.42;11.45;;;;;;;;;;5012994;28;46427;-84
2022/12/01 04:06:45;;;;;;;40.17;14.82;;;;;;;;;;5012941;28;20056;-84
2022/12/01 04:09:16;;;;;;;28.92;13.85;;;;;;;;;;5013373;28;20054;-84
2022/12/01 04:14:42;;;;;;;45.50;19.73;;;;;;;;;;5014244;28;20042;-84
2022/12/01 04:17:10;;;;;;;39.60;16.75;;;;;;;;;;5011866;28;20085;-83
2022/12/01 04:19:42;;;;;;;37.58;17.67;;;;;;;;;;5029861;28;20046;-84
2022/12/01 04:22:08;;;;;;;34.95;15.45;;;;;;;;;;5012416;28;20424;-85
2022/12/01 04:24:34;;;;;;;42.83;17.98;;;;;;;;;;5029779;28;20161;-84
2022/12/01 04:27:01;;;;;;;42.35;19.05;;;;;;;;;;5012172;28;20046;-84
2022/12/01 04:29:31;;;;;;;41.53;18.30;;;;;;;;;;5029863;28;20693;-84
2022/12/01 04:31:58;;;;;;;42.90;18.70;;;;;;;;;;5012561;28;20069;-84
2022/12/01 04:34:30;;;;;;;33.78;13.77;;;;;;;;;;5012646;28;20056;-84
2022/12/01 04:40:00;;;;;;;28.60;13.90;;;;;;;;;;5008728;28;20038;-84
2022/12/01 04:43:03;;;;;;;39.72;18.08;;;;;;;;;;5007689;28;20049;-84
2022/12/01 04:48:30;;;;;;;;;;;;;;;;;;5011614;28;20050;-85
2022/12/01 04:51:06;;;;;;;33.60;16.08;;;;;;;;;;5010690;28;19921;-84
2022/12/01 04:53:33;;;;;;;32.60;15.18;;;;;;;;;;5027597;28;20038;-84
2022/12/01 04:56:00;;;;;;;43.63;19.83;;;;;;;;;;5028679;28;20049;-84
2022/12/01 04:58:32;;;;;;;42.47;18.27;;;;;;;;;;5012662;28;20046;-84
2022/12/01 05:01:14;;;;;;;30.40;14.25;;;;;;;;;;5011281;28;20057;-85
2022/12/01 05:03:54;;;;;;;37.92;16.75;;;;;;;;;;5013013;28;20895;-84
2022/12/01 05:06:24;;;;;;;39.95;17.38;;;;;;;;;;5028654;28;20124;-85
2022/12/01 05:08:51;;;;;;;24.05;12.15;;;;;;;;;;5011433;28;20140;-84
2022/12/01 05:11:19;;;;;;;43.33;17.38;;;;;;;;;;5028446;28;20685;-84
2022/12/01 05:13:46;;;;;;;22.65;11.43;;;;;;;;;;5009583;28;20093;-84
2022/12/01 05:16:31;;;;;;;39.95;16.33;;;;;;;;;;5027941;28;20041;-84
2022/12/01 05:22:15;;;;;;;;;;;;;;;;;;;;;
2022/12/01 05:24:49;;;;;;;30.65;11.48;;;;;;;;;;5012133;28;38364;-84
2022/12/01 05:30:03;;;;;;;30.10;12.75;;;;;;;;;;4995756;28;20041;-84
2022/12/01 05:32:34;;;;;;;36.22;16.13;;;;;;;;;;5011572;28;20146;-84
2022/12/01 05:35:06;;;;;;;31.67;16.65;;;;;;;;;;5028674;28;20042;-84
2022/12/01 05:37:37;;;;;;;31.13;14.05;;;;;;;;;;5027849;28;20050;-84
2022/12/01 05:40:12;;;;;;;33.30;14.35;;;;;;;;;;5012210;28;20042;-83
2022/12/01 05:42:38;;;;;;;35.85;17.17;;;;;;;;;;5027244;28;20041;-85
2022/12/01 05:45:08;;;;;;;32.28;12.38;;;;;;;;;;5028062;28;20288;-85
2022/12/01 05:47:38;;;;;;;26.60;11.32;;;;;;;;;;5028836;28;20050;-84
2022/12/01 05:53:02;;;;;;;35.08;15.95;;;;;;;;;;5011726;28;20034;-84
2022/12/01 05:55:31;;;;;;;37.58;17.13;;;;;;;;;;5013933;28;20092;-84
2022/12/01 05:58:03;;;;;;;29.88;13.10;;;;;;;;;;5012738;28;20615;-85
2022/12/01 06:00:44;;;;;;;24.87;11.80;;;;;;;;;;5027112;28;20956;-84
2022/12/01 06:03:16;;;;;;;25.52;11.73;;;;;;;;;;5030018;28;20508;-84
2022/12/01 06:05:56;;;;;;;34.20;15.02;;;;;;;;;;5012954;28;20042;-84
2022/12/01 06:08:25;;;;;;;27.67;13.00;;;;;;;;;;5012503;28;20064;-85
2022/12/01 06:11:14;;;;;;;37.22;15.43;;;;;;;;;;5015191;28;20045;-85
2022/12/01 06:13:52;;;;;;;32.22;13.18;;;;;;;;;;5013171;28;20111;-84
2022/12/01 06:16:47;;;;;;;34.85;16.40;;;;;;;;;;5031685;28;20508;-84
2022/12/01 06:19:18;;;;;;;30.73;11.82;;;;;;;;;;5014423;28;20034;-84
2022/12/01 06:22:15;;;;;;;;;;;;;;;;;;;;;
2022/12/01 06:24:42;;;;;;;31.17;14.50;;;;;;;;;;5016954;28;40358;-86
2022/12/01 06:27:16;;;;;;;29.75;13.93;;;;;;;;;;5018365;28;20041;-85
2022/12/01 06:29:45;;;;;;;28.95;13.65;;;;;;;;;;5014627;28;20061;-85
2022/12/01 06:32:17;;;;;;;29.92;12.32;;;;;;;;;;5017403;28;20531;-83
2022/12/01 06:34:58;;;;;;;38.42;15.30;;;;;;;;;;5018396;28;20060;-85
2022/12/01 06:37:26;;;;;;;15.68;8.05;;;;;;;;;;5022267;28;20433;-85
2022/12/01 06:40:12;;;;;;;24.73;11.40;;;;;;;;;;5035005;28;20045;-85
2022/12/01 06:42:40;;;;;;;27.65;12.73;;;;;;;;;;5046521;28;20046;-85
2022/12/01 06:45:15;;;;;;;30.17;14.15;;;;;;;;;;5031262;28;20101;-86
2022/12/01 06:47:47;;;;;;;22.05;9.43;;;;;;;;;;5034191;28;20634;-85
2022/12/01 06:53:42;;;;;;;;;;;;;;;;;;;;;
2022/12/01 06:59:25;;;;;;;25.23;10.10;;;;;;;;;;5025586;28;20050;-88
2022/12/01 07:01:55;;;;;;;18.92;9.13;;;;;;;;;;5019640;28;20050;-83
2022/12/01 07:04:23;;;;;;;36.00;14.13;;;;;;;;;;5019151;28;20084;-83
2022/12/01 07:07:11;;;;;;;30.35;14.60;;;;;;;;;;5035746;28;20061;-91
2022/12/01 07:10:03;;;;;;;27.33;12.05;;;;;;;;;;5013283;28;20050;-84
2022/12/01 07:12:46;;;;;;;23.88;10.52;;;;;;;;;;5017923;28;20108;-85
2022/12/01 07:15:28;;;;;;;34.13;15.13;;;;;;;;;;5016437;28;20049;-85
2022/12/01 07:17:57;;;;;;;17.15;8.82;;;;;;;;;;5023033;28;20150;-85
2022/12/01 07:20:29;;;;;;;18.88;9.00;;;;;;;;;;5018971;28;20041;-85
2022/12/01 07:26:00;;;;;;;30.60;14.40;;;;;;;;;;5020816;28;20052;-87
2022/12/01 07:28:34;;;;;;;22.17;10.73;;;;;;;;;;5016523;28;20045;-85
2022/12/01 07:31:23;;;;;;;28.88;12.88;;;;;;;;;;5033584;28;20054;-85
2022/12/01 07:34:06;;;;;;;40.67;15.65;;;;;;;;;;5035975;28;20069;-85
2022/12/01 07:42:55;;;;;;;20.30;10.38;;;;;;;;;;5006949;28;20046;-86
2022/12/01 07:45:24;;;;;;;28.88;12.68;;;;;;;;;;4992974;28;20931;-84
2022/12/01 07:47:56;;;;;;;22.48;9.85;;;;;;;;;;5007349;28;20039;-83
2022/12/01 07:50:55;;;;;;;;;;;;;;;;;;;;;
2022/12/01 07:53:52;;;;;;;;;;;;;;;;;;;;;
2022/12/01 07:56:40;;;;;;;36.05;15.23;;;;;;;;;;5007353;28;42175;-84
2022/12/01 07:59:16;;;;;;;33.78;13.60;;;;;;;;;;4993489;28;20042;-83
2022/12/01 08:05:10;;;;;;;21.00;9.57;;;;;;;;;;4999241;28;20109;-84
2022/12/01 08:08:01;;;;;;;25.08;12.15;;;;;;;;;;5002393;28;20086;-83
2022/12/01 08:10:46;;;;;;;33.72;13.90;;;;;;;;;;5010700;28;20038;-83
2022/12/01 08:13:25;;;;;;;38.28;16.02;;;;;;;;;;5005896;28;20042;-82
2022/12/01 08:16:02;;;;;;;36.13;19.00;;;;;;;;;;5029987;28;20743;-84
2022/12/01 08:18:30;;;;;;;27.23;12.27;;;;;;;;;;5012219;28;20598;-83
2022/12/01 08:20:57;;;;;;;29.13;13.63;;;;;;;;;;5010902;28;20225;-84
2022/12/01 08:23:40;;;;;;;39.15;13.98;;;;;;;;;;5029859;28;20038;-84
2022/12/01 08:26:11;;;;;;;41.17;18.02;;;;;;;;;;5011572;28;20397;-83
2022/12/01 08:28:58;;;;;;;28.08;11.68;;;;;;;;;;5013448;28;20074;-84
2022/12/01 08:31:41;;;;;;;29.20;12.55;;;;;;;;;;5012622;28;20044;-83
2022/12/01 08:34:26;;;;;;;;;;;;;;;;;;;;;
2022/12/01 08:36:57;;;;;;;32.15;16.33;;;;;;;;;;5012436;28;38639;-83
2022/12/01 08:39:26;;;;;;;33.70;14.18;;;;;;;;;;5012008;28;20151;-84
2022/12/01 08:42:01;;;;;;;27.65;13.40;;;;;;;;;;5029574;28;20050;-83
2022/12/01 08:44:29;;;;;;;38.70;14.95;;;;;;;;;;5029207;28;20058;-84
2022/12/01 08:46:56;;;;;;;30.17;15.07;;;;;;;;;;5029380;28;20049;-84
2022/12/01 08:49:26;;;;;;;23.25;10.88;;;;;;;;;;5012551;28;20038;-84
2022/12/01 08:51:55;;;;;;;21.42;9.88;;;;;;;;;;5029706;28;20052;-84
2022/12/01 08:54:24;;;;;;;27.38;14.00;;;;;;;;;;5011796;28;20046;-83
2022/12/01 08:56:51;;;;;;;23.40;10.27;;;;;;;;;;5011359;28;21014;-83
2022/12/01 08:59:17;;;;;;;34.28;14.60;;;;;;;;;;5009391;28;20940;-84
2022/12/01 09:01:53;;;;;;;31.63;15.75;;;;;;;;;;5011742;28;20052;-84
2022/12/01 09:04:49;;;;;;;22.45;10.30;;;;;;;;;;5006951;28;20769;-87
2022/12/01 09:07:34;;;;;;;17.13;8.05;;;;;;;;;;5019159;28;20046;-87
2022/12/01 09:10:23;;;;;;;26.38;12.35;;;;;;;;;;5012167;28;20046;-87
2022/12/01 09:13:05;;;;;;;34.45;18.23;;;;;;;;;;5028209;28;20512;-86
2022/12/01 09:15:58;;;;;;;26.60;11.68;;;;;;;;;;5008495;28;20060;-87
2022/12/01 09:24:08;;;;;;;26.98;12.60;;;;;;;;;;5013838;28;20074;-87
2022/12/01 09:26:37;;;;;;;31.30;14.00;;;;;;;;;;5011487;28;20118;-86
2022/12/01 09:29:10;;;;;;;24.98;14.68;;;;;;;;;;5012262;28;20038;-86
2022/12/01 09:32:02;;;;;;;23.00;11.25;;;;;;;;;;5012170;28;20128;-86
2022/12/01 09:34:44;;;;;;;32.90;16.63;;;;;;;;;;5008500;28;20049;-83
2022/12/01 09:37:25;;;;;;;28.05;14.35;;;;;;;;;;5026823;28;20129;-83
2022/12/01 09:40:09;;;;;;;32.53;12.52;;;;;;;;;;5010333;28;20088;-82
2022/12/01 09:42:37;;;;;;;26.02;13.80;;;;;;;;;;5010361;28;20086;-83
2022/12/01 09:45:41;;;;;;;29.13;12.57;;;;;;;;;;5009188;28;20105;-84
2022/12/01 09:48:19;;;;;;;30.40;13.95;;;;;;;;;;4989505;28;20937;-83
2022/12/01 09:54:15;;;;;;;29.92;14.32;;;;;;;;;;5011831;28;20095;-83
2022/12/01 09:57:04;;;;;;;35.25;16.92;;;;;;;;;;5010058;28;20054;-84
2022/12/01 09:59:51;;;;;;;18.10;10.77;;;;;;;;;;5009987;28;20052;-83
2022/12/01 10:02:43;;;;;;;30.50;16.10;;;;;;;;;;5011385;28;20046;-84
2022/12/01 10:05:19;;;;;;;18.75;8.38;;;;;;;;;;5011035;28;20045;-84
2022/12/01 10:07:45;;;;;;;30.98;13.73;;;;;;;;;;5026418;28;20113;-83
2022/12/01 10:10:17;;;;;;;25.67;11.32;;;;;;;;;;5027724;28;20579;-83
2022/12/01 10:12:46;;;;;;;22.80;11.20;;;;;;;;;;5019345;28;20081;-83
2022/12/01 10:15:25;;;;;;;32.83;15.80;;;;;;;;;;5012009;28;20054;-83
2022/12/01 10:18:02;;;;;;;27.40;14.80;;;;;;;;;;5027686;28;20092;-83
2022/12/01 10:20:55;;;;;;;;;;;;;;;;;;;;;
2022/12/01 10:23:21;;;;;;;;;;;;;;;;;;5011662;28;39586;-84
2022/12/01 10:26:01;;;;;;;32.30;14.25;;;;;;;;;;5026143;28;21132;-83
2022/12/01 10:28:32;;;;;;;26.50;11.35;;;;;;;;;;5028686;28;20054;-83
2022/12/01 10:31:02;;;;;;;27.65;12.32;;;;;;;;;;5009798;28;20069;-83
2022/12/01 10:33:39;;;;;;;25.80;12.15;;;;;;;;;;5012445;28;20355;-84
2022/12/01 10:36:16;;;;;;;21.08;8.23;;;;;;;;;;5017238;28;20081;-83
2022/12/01 10:38:52;;;;;;;19.73;11.57;;;;;;;;;;5018295;28;21020;-83
2022/12/01 10:41:25;;;;;;;28.15;14.43;;;;;;;;;;5042336;28;20068;-84
2022/12/01 10:43:59;;;;;;;22.38;10.88;;;;;;;;;;5041297;28;20570;-83
2022/12/01 10:46:26;;;;;;;23.75;9.70;;;;;;;;;;5027982;28;20046;-83
2022/12/01 10:48:59;;;;;;;20.85;10.60;;;;;;;;;;5042192;28;20072;-83
2022/12/01 10:51:45;;;;;;;30.08;12.90;;;;;;;;;;5029601;28;20050;-83
2022/12/01 10:54:25;;;;;;;24.45;9.98;;;;;;;;;;5008055;28;20614;-83
2022/12/01 10:57:02;;;;;;;28.05;9.85;;;;;;;;;;5031730;28;20053;-84
2022/12/01 10:59:54;;;;;;;13.77;7.72;;;;;;;;;;5016772;28;20045;-84
2022/12/01 11:02:32;;;;;;;19.63;9.02;;;;;;;;;;5020609;28;20050;-83
2022/12/01 11:05:29;;;;;;;;;;;;;;;;;;;;;
2022/12/01 11:08:14;;;;;;;19.75;9.90;;;;;;;;;;5014375;28;44056;-83
2022/12/01 11:11:16;;;;;;;23.00;11.60;;;;;;;;;;5010049;28;21144;-83
2022/12/01 11:14:16;;;;;;;;;;;;;;;;;;;;;
2022/12/01 11:16:51;;;;;;;21.52;10.50;;;;;;;;;;5009525;28;39843;-84
2022/12/01 11:19:31;;;;;;;18.27;8.90;;;;;;;;;;5014842;28;20709;-83
2022/12/01 11:22:21;;;;;;;18.02;8.27;;;;;;;;;;5014207;28;20049;-83
2022/12/01 11:25:03;;;;;;;26.58;12.75;;;;;;;;;;5030244;28;20108;-83
2022/12/01 11:27:33;;;;;;;12.10;6.25;;;;;;;;;;5030052;28;20139;-83
2022/12/01 11:30:11;;;;;;;16.35;8.57;;;;;;;;;;5028989;28;20050;-84
2022/12/01 11:32:43;;;;;;;24.80;13.27;;;;;;;;;;5031173;28;20113;-83
2022/12/01 11:35:20;;;;;;;15.43;8.45;;;;;;;;;;5015057;28;20263;-83
2022/12/01 11:38:00;;;;;;;14.02;7.10;;;;;;;;;;5013373;28;20077;-83
2022/12/01 11:40:36;;;;;;;17.08;7.28;;;;;;;;;;5014353;28;20049;-84
2022/12/01 11:43:07;;;;;;;23.33;9.88;;;;;;;;;;5010574;28;20192;-84
2022/12/01 11:45:40;;;;;;;10.80;5.95;;;;;;;;;;5010689;28;20053;-83
2022/12/01 11:48:18;;;;;;;24.52;12.05;;;;;;;;;;5012855;28;20516;-84
2022/12/01 11:51:03;;;;;;;25.50;13.40;;;;;;;;;;5011432;28;20250;-84
2022/12/01 11:53:47;;;;;;;17.42;8.57;;;;;;;;;;5029856;28;20209;-83
2022/12/01 11:56:27;;;;;;;19.38;8.57;;;;;;;;;;5013749;28;20033;-83
2022/12/01 11:59:14;;;;;;;16.52;7.80;;;;;;;;;;5012892;28;20056;-83
2022/12/01 12:02:02;;;;;;;13.65;6.72;;;;;;;;;;5013265;28;20060;-83
2022/12/01 12:05:00;;;;;;;17.02;9.82;;;;;;;;;;5012107;28;20046;-83
2022/12/01 12:07:46;;;;;;;18.83;7.68;;;;;;;;;;5028931;28;20046;-87
2022/12/01 12:10:36;;;;;;;16.30;8.77;;;;;;;;;;5013781;28;20040;-83
2022/12/01 12:13:24;;;;;;;15.18;9.07;;;;;;;;;;5013052;28;20105;-83
2022/12/01 12:16:06;;;;;;;14.00;7.82;;;;;;;;;;5013513;28;20539;-85
2022/12/01 12:18:32;;;;;;;16.75;9.13;;;;;;;;;;5013384;28;20139;-84
2022/12/01 12:21:11;;;;;;;17.88;10.18;;;;;;;;;;5010396;28;20072;-83
2022/12/01 12:23:59;;;;;;;15.82;7.30;;;;;;;;;;5010829;28;20611;-83
2022/12/01 12:26:37;;;;;;;21.25;11.43;;;;;;;;;;5011250;28;20096;-84
2022/12/01 12:29:06;;;;;;;24.95;11.93;;;;;;;;;;5026922;28;20754;-83
2022/12/01 12:31:42;;;;;;;25.10;12.95;;;;;;;;;;5011152;28;20050;-83
2022/12/01 12:34:24;;;;;;;21.38;12.32;;;;;;;;;;5011366;28;20049;-83
2022/12/01 12:40:02;;;;;;;20.33;7.07;;;;;;;;;;5012309;28;20088;-84
2022/12/01 12:42:52;;;;;;;20.60;9.55;;;;;;;;;;5029457;28;20046;-84
2022/12/01 12:45:30;;;;;;;21.00;11.07;;;;;;;;;;5028066;28;20718;-84
2022/12/01 12:48:05;;;;;;;19.10;9.80;;;;;;;;;;5012358;28;20050;-84
2022/12/01 12:51:07;;;;;;;16.13;7.60;;;;;;;;;;5012933;28;20042;-84
2022/12/01 12:54:03;;;;;;;;;;;;;;;;;;;;;
2022/12/01 12:56:59;;;;;;;13.75;7.93;;;;;;;;;;5011195;28;44841;-84
2022/12/01 13:00:03;;;;;;;;;;;;;;;;;;;;;
2022/12/01 13:03:03;;;;;;;13.80;6.38;;;;;;;;;;5011195;28;39696;-84
2022/12/01 13:05:52;;;;;;;18.33;8.20;;;;;;;;;;5008588;28;20155;-83
2022/12/01 13:08:38;;;;;;;;;;;;;;;;;;;;;
2022/12/01 13:11:25;;;;;;;19.75;8.75;;;;;;;;;;5011834;28;41716;-83
2022/12/01 13:13:57;;;;;;;12.60;5.60;;;;;;;;;;5011996;28;20045;-84
2022/12/01 13:16:43;;;;;;;17.15;7.93;;;;;;;;;;5029529;28;20489;-84
2022/12/01 13:19:24;;;;;;;15.88;7.95;;;;;;;;;;5006069;28;20230;-83
2022/12/01 13:22:11;;;;;;;19.60;9.88;;;;;;;;;;5011177;28;20046;-81
2022/12/01 13:24:43;;;;;;;18.05;9.02;;;;;;;;;;5013509;28;20099;-86
2022/12/01 13:27:29;;;;;;;;;;;;;;;;;;;;;
2022/12/01 13:30:31;;;;;;;20.73;7.85;;;;;;;;;;5011499;28;44529;-84
2022/12/01 13:33:20;;;;;;;16.92;6.82;;;;;;;;;;4942108;28;20047;-86
2022/12/01 13:35:54;;;;;;;22.85;9.10;;;;;;;;;;4991784;28;20050;-85
2022/12/01 13:38:58;;;;;;;13.95;6.50;;;;;;;;;;4992384;28;20092;-87
2022/12/01 13:41:53;;;;;;;14.45;7.63;;;;;;;;;;4952812;28;20806;-86
2022/12/01 13:44:29;;;;;;;13.82;6.10;;;;;;;;;;4992119;28;20058;-86
2022/12/01 13:50:42;;;;;;;14.73;8.00;;;;;;;;;;4997775;28;20054;-85
2022/12/01 13:53:26;;;;;;;;;;;;;;;;;;;;;
2022/12/01 13:56:04;;;;;;;18.25;9.85;;;;;;;;;;4998608;28;42751;-85
2022/12/01 13:58:47;;;;;;;9.52;6.20;;;;;;;;;;5014128;28;20054;-84
2022/12/01 14:01:33;;;;;;;19.05;7.47;;;;;;;;;;5020926;28;20054;-85
2022/12/01 14:04:08;;;;;;;9.82;4.47;;;;;;;;;;5023448;28;20057;-84
2022/12/01 14:06:58;;;;;;;8.18;5.43;;;;;;;;;;5036414;28;20911;-87
2022/12/01 14:09:26;;;;;;;13.98;6.13;;;;;;;;;;5020553;28;20065;-85
2022/12/01 14:12:21;;;;;;;15.60;8.55;;;;;;;;;;5028311;28;20054;-85
2022/12/01 14:15:15;;;;;;;8.27;3.92;;;;;;;;;;5020414;28;20047;-86
2022/12/01 14:17:47;;;;;;;;;;;;;;;;;;5020793;28;20053;-84
2022/12/01 14:20:16;;;;;;;11.30;5.63;;;;;;;;;;5036426;28;19961;-85
2022/12/01 14:23:09;;;;;;;10.05;4.90;;;;;;;;;;5020622;28;20520;-87
2022/12/01 14:25:38;;;;;;;12.50;5.35;;;;;;;;;;5015096;28;20049;-81
2022/12/01 14:28:19;;;;;;;16.95;8.27;;;;;;;;;;5020709;28;20163;-82
2022/12/01 14:30:52;;;;;;;20.00;8.32;;;;;;;;;;5028494;28;20087;-82
2022/12/01 14:33:37;;;;;;;15.10;7.75;;;;;;;;;;5030522;28;20046;-83
2022/12/01 14:40:10;;;;;;;15.30;7.22;;;;;;;;;;5034500;28;20038;-86
2022/12/01 14:45:41;;;;;;;21.08;8.38;;;;;;;;;;5035786;28;20042;-85
2022/12/01 14:48:21;;;;;;;22.38;7.95;;;;;;;;;;5019565;28;20106;-86
2022/12/01 14:51:14;;;;;;;14.05;7.53;;;;;;;;;;5015183;28;20046;-85
2022/12/01 14:53:54;;;;;;;19.80;10.20;;;;;;;;;;5019202;28;20034;-85
2022/12/01 14:56:47;;;;;;;15.82;8.52;;;;;;;;;;5011987;28;20136;-86
2022/12/01 15:02:14;;;;;;;12.70;6.70;;;;;;;;;;4997256;28;20478;-85
2022/12/01 15:05:25;;;;;;;17.23;8.25;;;;;;;;;;5015226;28;20074;-87
2022/12/01 15:11:28;;;;;;;14.45;7.18;;;;;;;;;;5025972;28;20069;-88
2022/12/01 15:20:51;;;;;;;19.38;8.18;;;;;;;;;;4935240;28;20504;-88
2022/12/01 15:23:44;;;;;;;17.00;8.02;;;;;;;;;;5018449;28;20054;-90
2022/12/01 15:30:02;;;;;;;12.75;6.97;;;;;;;;;;5022882;28;20056;-88
2022/12/01 15:39:22;;;;;;;18.58;9.18;;;;;;;;;;4933564;28;20594;-89
2022/12/01 15:42:22;;;;;;;17.65;7.70;;;;;;;;;;4962902;28;20051;-88
2022/12/01 15:45:24;;;;;;;15.98;6.72;;;;;;;;;;4963954;28;20055;-87
2022/12/01 15:48:25;;;;;;;17.73;8.13;;;;;;;;;;4942226;28;20048;-90
2022/12/01 15:51:39;;;;;;;22.17;7.13;;;;;;;;;;4925878;28;20052;-90
2022/12/01 16:01:27;;;;;;;13.63;6.53;;;;;;;;;;4979159;28;20042;-89
2022/12/01 16:04:19;;;;;;;19.77;6.85;;;;;;;;;;4945665;28;20619;-89
2022/12/01 16:20:08;;;;;;;;;;;;;;;;;;;;;
2022/12/01 16:22:55;;;;;;;26.27;12.02;;;;;;;;;;5019950;28;39319;-89
2022/12/01 16:32:48;;;;;;;16.17;7.88;;;;;;;;;;5021025;28;20080;-89
2022/12/01 16:35:48;;;;;;;19.90;8.10;;;;;;;;;;5014370;28;20100;-89
2022/12/01 16:39:02;;;;;;;17.90;8.55;;;;;;;;;;5035135;28;20128;-89
2022/12/01 16:48:27;;;;;;;6.45;3.58;;;;;;;;;;4952003;28;20138;-88
2022/12/01 16:54:05;;;;;;;10.65;5.20;;;;;;;;;;5018579;28;20813;-88
2022/12/01 16:56:49;;;;;;;14.65;6.40;;;;;;;;;;4999909;28;20050;-89
2022/12/01 16:59:29;;;;;;;;;;;;;;;;;;;;;
2022/12/01 17:11:58;;;;;;;;;;;;;;;;;;;;;
2022/12/01 17:14:51;;;;;;;16.65;8.35;;;;;;;;;;5019983;28;45936;-90
2022/12/01 17:17:41;;;;;;;18.25;8.70;;;;;;;;;;5036760;28;20050;-90
2022/12/01 17:20:36;;;;;;;15.75;8.75;;;;;;;;;;5027082;28;20049;-90
2022/12/01 17:23:51;;;;;;;14.40;8.57;;;;;;;;;;5024054;28;20049;-90
2022/12/01 17:40:12;;;;;;;;;;;;;;;;;;;;;
2022/12/01 17:42:56;;;;;;;;;;;;;;;;;;;;;
2022/12/01 17:49:09;;;;;;;32.15;14.45;;;;;;;;;;5019964;28;20087;-88
2022/12/01 18:11:29;;;;;;;26.13;12.80;;;;;;;;;;5012659;28;20532;-86
2022/12/01 18:20:55;;;;;;;22.52;12.50;;;;;;;;;;4985401;28;20046;-87
2022/12/01 18:23:51;;;;;;;28.30;11.55;;;;;;;;;;5018278;28;20053;-88
2022/12/01 18:26:55;;;;;;;;;;;;;;;;;;;;;
2022/12/01 18:39:18;;;;;;;19.77;8.52;;;;;;;;;;4940383;28;20064;-87
2022/12/01 18:41:58;;;;;;;25.52;13.48;;;;;;;;;;4989905;28;20280;-87
2022/12/01 18:44:37;;;;;;;27.20;12.90;;;;;;;;;;4998503;28;20050;-87
2022/12/01 18:47:40;;;;;;;32.47;13.23;;;;;;;;;;4998144;28;20058;-86
2022/12/01 18:50:07;;;;;;;29.17;13.95;;;;;;;;;;4995315;28;20050;-79
2022/12/01 18:52:50;;;;;;;20.13;10.32;;;;;;;;;;4994558;28;20046;-86
2022/12/01 18:55:37;;;;;;;30.08;12.27;;;;;;;;;;4982050;28;20069;-88
2022/12/01 18:58:42;;;;;;;26.42;11.18;;;;;;;;;;4982814;28;20050;-83
2022/12/01 19:01:45;;;;;;;17.75;8.25;;;;;;;;;;4902386;29;20586;-86
2022/12/01 19:04:37;;;;;;;26.08;11.13;;;;;;;;;;4953058;28;20058;-91
2022/12/01 19:07:13;;;;;;;30.45;13.93;;;;;;;;;;4981338;28;20066;-91
2022/12/01 19:09:45;;;;;;;47.55;18.40;;;;;;;;;;4999804;28;20054;-88